Clear with few low clouds and cirrus
Clear with cirrus
Clear with cirrus
Clear with cirrus
Clear, few cirrus
Clear, few cirrus
Clear with few low clouds
(°F)
64°
62°
59°
56°
54°
53°
52°
(°F)
59°
57°
54°
52°
51°
50°
48°
S
S
S
S
S
E
NNE
(mph)
2-7
4-6
4-7
3-6
2-6
1-6
2-5
(in)
0
0
0
0
0
0
0
(%)
0
0
0
0
0
0
0

Sun elevation

/ 9.9°
sun-icon
UV 2
07:56
17:48
Waxing crescent moon (49°)
11:54
21:18

METAR for Alcantarilla (LERI)

Time Conditions Temperature/
Dewpoint
Wind Visibility Weather Clouds Pressure Change Raw
VFR 64.4°F / 44.6°F variable 2kt >10km - Clouds and Visibility OK 1022 No Significant change LERI 271530Z VRB02KT CAVOK 18/07 Q1022 NOSIG
VFR 64.4°F / 44.6°F 70º variable 030º to 100º 4kt >10km - Clouds and Visibility OK 1022 No Significant change LERI 271500Z 07004KT 030V100 CAVOK 18/07 Q1022 NOSIG
VFR 64.4°F / 44.6°F 40º variable 350º to 080º 3kt >10km - Clouds and Visibility OK 1023 No Significant change LERI 271430Z 04003KT 350V080 CAVOK 18/07 Q1023 NOSIG
VFR 64.4°F / 44.6°F variable 1kt >10km - Clouds and Visibility OK 1023 No Significant change LERI 271400Z VRB01KT CAVOK 18/07 Q1023 NOSIG
VFR 62.6°F / 41°F 90º variable 350º to 150º 3kt >10km - Clouds and Visibility OK 1023 No Significant change LERI 271330Z 09003KT 350V150 CAVOK 17/05 Q1023 NOSIG
VFR 62.6°F / 39.2°F variable 2kt >10km - Clouds and Visibility OK 1024 No Significant change LERI 271300Z VRB02KT CAVOK 17/04 Q1024 NOSIG
VFR 62.6°F / 35.6°F variable 2kt >10km - Clouds and Visibility OK 1024 No Significant change LERI 271230Z VRB02KT CAVOK 17/02 Q1024 NOSIG
VFR 59°F / 33.8°F 110º variable 050º to 170º 3kt >10km - Clouds and Visibility OK 1025 No Significant change LERI 271200Z 11003KT 050V170 CAVOK 15/01 Q1025 NOSIG
VFR 59°F / 33.8°F 100º variable 010º to 160º 3kt >10km - Clouds and Visibility OK 1025 No Significant change LERI 271130Z 10003KT 010V160 CAVOK 15/01 Q1025 NOSIG
VFR 55.4°F / 33.8°F variable 1kt >10km - Clouds and Visibility OK 1026 No Significant change LERI 271100Z VRB01KT CAVOK 13/01 Q1026 NOSIG
VFR 53.6°F / 35.6°F variable 2kt >10km - Clouds and Visibility OK 1026 No Significant change LERI 271030Z VRB02KT CAVOK 12/02 Q1026 NOSIG
VFR 51.8°F / 37.4°F variable 1kt >10km - Clouds and Visibility OK 1027 No Significant change LERI 271000Z VRB01KT CAVOK 11/03 Q1027 NOSIG
VFR 48.2°F / 37.4°F variable 0kt >10km - Clouds and Visibility OK 1027 No Significant change LERI 270930Z 00000KT CAVOK 09/03 Q1027 NOSIG
VFR 46.4°F / 37.4°F variable 1kt >10km - Clouds and Visibility OK 1027 No Significant change LERI 270900Z VRB01KT CAVOK 08/03 Q1027 NOSIG
VFR 42.8°F / 39.2°F 160º 2kt >10km - Clouds and Visibility OK 1027 No Significant change LERI 270830Z 16002KT CAVOK 06/04 Q1027 NOSIG
VFR 41°F / 39.2°F 290º 1kt >10km - Clouds and Visibility OK 1027 No Significant change LERI 270800Z 29001KT CAVOK 05/04 Q1027 NOSIG
VFR 39.2°F / 37.4°F 240º 3kt >10km patches Fog Vertical Visibility of 0ft. 1026 No Significant change LERI 270730Z 24003KT 9999 3500SE BCFG NSC 04/03 Q1026 NOSIG
VFR 39.2°F / 37.4°F 230º 2kt >10km - Few Clouds 5500ft 1026 No Significant change LERI 270700Z 23002KT 9999 FEW055 04/03 Q1026 NOSIG
VFR 37.4°F / 35.6°F variable 0kt >10km - Clouds and Visibility OK 1027 No Significant change LERI 270630Z 00000KT CAVOK 03/02 Q1027 NOSIG
VFR 39.2°F / 35.6°F variable 1kt >10km - Clouds and Visibility OK 1027 No Significant change LERI 270600Z VRB01KT CAVOK 04/02 Q1027 NOSIG
VFR 53.6°F / 37.4°F variable 0kt >10km - Clouds and Visibility OK 1028 No Significant change LERI 261800Z 00000KT CAVOK 12/03 Q1028 NOSIG
VFR 60.8°F / 33.8°F 170º 1kt >10km - Clouds and Visibility OK 1027 No Significant change LERI 261700Z 17001KT CAVOK 16/01 Q1027 NOSIG
VFR 68°F / 28.4°F 190º 1kt >10km - Clouds and Visibility OK 1027 No Significant change LERI 261630Z 19001KT CAVOK 20/M02 Q1027 NOSIG
VFR 69.8°F / 28.4°F variable 0kt >10km - Clouds and Visibility OK 1027 No Significant change LERI 261600Z 00000KT CAVOK 21/M02 Q1027 NOSIG

VFR

64.4°F / 44.6°F

[More]
Wind variable 2kt
Visibility >10km
Weather -
Clouds Clouds and Visibility OK
Pressure 1022
Change No Significant change
Raw LERI 271530Z VRB02KT CAVOK 18/07 Q1022 NOSIG

VFR

64.4°F / 44.6°F

[More]
Wind 70º variable 030º to 100º 4kt
Visibility >10km
Weather -
Clouds Clouds and Visibility OK
Pressure 1022
Change No Significant change
Raw LERI 271500Z 07004KT 030V100 CAVOK 18/07 Q1022 NOSIG

VFR

64.4°F / 44.6°F

[More]
Wind 40º variable 350º to 080º 3kt
Visibility >10km
Weather -
Clouds Clouds and Visibility OK
Pressure 1023
Change No Significant change
Raw LERI 271430Z 04003KT 350V080 CAVOK 18/07 Q1023 NOSIG

VFR

64.4°F / 44.6°F

[More]
Wind variable 1kt
Visibility >10km
Weather -
Clouds Clouds and Visibility OK
Pressure 1023
Change No Significant change
Raw LERI 271400Z VRB01KT CAVOK 18/07 Q1023 NOSIG

VFR

62.6°F / 41°F

[More]
Wind 90º variable 350º to 150º 3kt
Visibility >10km
Weather -
Clouds Clouds and Visibility OK
Pressure 1023
Change No Significant change
Raw LERI 271330Z 09003KT 350V150 CAVOK 17/05 Q1023 NOSIG

VFR

62.6°F / 39.2°F

[More]
Wind variable 2kt
Visibility >10km
Weather -
Clouds Clouds and Visibility OK
Pressure 1024
Change No Significant change
Raw LERI 271300Z VRB02KT CAVOK 17/04 Q1024 NOSIG

VFR

62.6°F / 35.6°F

[More]
Wind variable 2kt
Visibility >10km
Weather -
Clouds Clouds and Visibility OK
Pressure 1024
Change No Significant change
Raw LERI 271230Z VRB02KT CAVOK 17/02 Q1024 NOSIG

VFR

59°F / 33.8°F

[More]
Wind 110º variable 050º to 170º 3kt
Visibility >10km
Weather -
Clouds Clouds and Visibility OK
Pressure 1025
Change No Significant change
Raw LERI 271200Z 11003KT 050V170 CAVOK 15/01 Q1025 NOSIG

VFR

59°F / 33.8°F

[More]
Wind 100º variable 010º to 160º 3kt
Visibility >10km
Weather -
Clouds Clouds and Visibility OK
Pressure 1025
Change No Significant change
Raw LERI 271130Z 10003KT 010V160 CAVOK 15/01 Q1025 NOSIG

VFR

55.4°F / 33.8°F

[More]
Wind variable 1kt
Visibility >10km
Weather -
Clouds Clouds and Visibility OK
Pressure 1026
Change No Significant change
Raw LERI 271100Z VRB01KT CAVOK 13/01 Q1026 NOSIG

VFR

53.6°F / 35.6°F

[More]
Wind variable 2kt
Visibility >10km
Weather -
Clouds Clouds and Visibility OK
Pressure 1026
Change No Significant change
Raw LERI 271030Z VRB02KT CAVOK 12/02 Q1026 NOSIG

VFR

51.8°F / 37.4°F

[More]
Wind variable 1kt
Visibility >10km
Weather -
Clouds Clouds and Visibility OK
Pressure 1027
Change No Significant change
Raw LERI 271000Z VRB01KT CAVOK 11/03 Q1027 NOSIG

VFR

48.2°F / 37.4°F

[More]
Wind variable 0kt
Visibility >10km
Weather -
Clouds Clouds and Visibility OK
Pressure 1027
Change No Significant change
Raw LERI 270930Z 00000KT CAVOK 09/03 Q1027 NOSIG

VFR

46.4°F / 37.4°F

[More]
Wind variable 1kt
Visibility >10km
Weather -
Clouds Clouds and Visibility OK
Pressure 1027
Change No Significant change
Raw LERI 270900Z VRB01KT CAVOK 08/03 Q1027 NOSIG

VFR

42.8°F / 39.2°F

[More]
Wind 160º 2kt
Visibility >10km
Weather -
Clouds Clouds and Visibility OK
Pressure 1027
Change No Significant change
Raw LERI 270830Z 16002KT CAVOK 06/04 Q1027 NOSIG

VFR

41°F / 39.2°F

[More]
Wind 290º 1kt
Visibility >10km
Weather -
Clouds Clouds and Visibility OK
Pressure 1027
Change No Significant change
Raw LERI 270800Z 29001KT CAVOK 05/04 Q1027 NOSIG

VFR

39.2°F / 37.4°F

[More]
Wind 240º 3kt
Visibility >10km
Weather patches Fog
Clouds Vertical Visibility of 0ft.
Pressure 1026
Change No Significant change
Raw LERI 270730Z 24003KT 9999 3500SE BCFG NSC 04/03 Q1026 NOSIG

VFR

39.2°F / 37.4°F

[More]
Wind 230º 2kt
Visibility >10km
Weather -
Clouds Few Clouds 5500ft
Pressure 1026
Change No Significant change
Raw LERI 270700Z 23002KT 9999 FEW055 04/03 Q1026 NOSIG

VFR

37.4°F / 35.6°F

[More]
Wind variable 0kt
Visibility >10km
Weather -
Clouds Clouds and Visibility OK
Pressure 1027
Change No Significant change
Raw LERI 270630Z 00000KT CAVOK 03/02 Q1027 NOSIG

VFR

39.2°F / 35.6°F

[More]
Wind variable 1kt
Visibility >10km
Weather -
Clouds Clouds and Visibility OK
Pressure 1027
Change No Significant change
Raw LERI 270600Z VRB01KT CAVOK 04/02 Q1027 NOSIG

VFR

53.6°F / 37.4°F

[More]
Wind variable 0kt
Visibility >10km
Weather -
Clouds Clouds and Visibility OK
Pressure 1028
Change No Significant change
Raw LERI 261800Z 00000KT CAVOK 12/03 Q1028 NOSIG

VFR

60.8°F / 33.8°F

[More]
Wind 170º 1kt
Visibility >10km
Weather -
Clouds Clouds and Visibility OK
Pressure 1027
Change No Significant change
Raw LERI 261700Z 17001KT CAVOK 16/01 Q1027 NOSIG

VFR

68°F / 28.4°F

[More]
Wind 190º 1kt
Visibility >10km
Weather -
Clouds Clouds and Visibility OK
Pressure 1027
Change No Significant change
Raw LERI 261630Z 19001KT CAVOK 20/M02 Q1027 NOSIG

VFR

69.8°F / 28.4°F

[More]
Wind variable 0kt
Visibility >10km
Weather -
Clouds Clouds and Visibility OK
Pressure 1027
Change No Significant change
Raw LERI 261600Z 00000KT CAVOK 21/M02 Q1027 NOSIG

TAF for Alcantarilla (LERI)

From till


Maximum Temperature 20ºC on . Minimum Temperature 7ºC on .
From till Wind variable 2kt. Visibility 10km or more. Nil Significant Cloud.
Becoming from till Wind 300º 10kt. Visibility 10km or more. Nil Significant Cloud.
Becoming from till Wind 320º 20kt. Visibility 10km or more. Nil Significant Cloud.
Temporarly from till Wind 320º 20kt. Gust 30kt.

Raw: TAF LERI 271100Z 2712/2812 VRB02KT CAVOK TX20/2715Z TN07/2806Z BECMG 2804/2806 30010KT BECMG 2809/2811 32020KT TEMPO 2809/2812 32020G30KT

Radar for Alcantarilla

Drizzle
Light
Moderate
Heavy
Very Heavy
Hail

The location marker is placed on Alcantarilla. This animation shows the precipitation radar for the last 1 hour. Drizzle or light snow fall might be invisible for the radar. Precipitation intensity is colour coded, ranging from light blue to orange.
Radar data source: AEMET.

Current satellite and rain images for Alcantarilla, Spain

The location marker is placed on Alcantarilla. [More]

The real-time satellite image combines visible light during daytime with infrared radiation during nighttime. At night, the image is not dark as infrared radiation can detect temperature differences. Unfortunately, low clouds and fog are difficult to distinguish from ground temperatures and thus can be almost invisible during the night. Meteosat satellite images for Europe are updated in real-time every 5 minutes. GOES-16/GOES-17 (North & South America) and Himawari (Asia) images update every 10 minutes.

Precipitation is estimated from radar and satellites. Precipitation estimates from satellites are less accurate at night than during daytime. Orange crosses mark places where lightning was detected (over Europe).

Copyright 2022 EUMETSAT / meteoblue. Lightning data provided by nowcast.

Back to top